Terminal Aerodrome Forecast
Issued by NWS

Home | Current Version | Previous Version | Text Only | Print | Product List | Glossary On
Versions: 1 2 3 4 5 6 7 8 9 10 11 12 13 14 15 16
255
FTUS42 KGSP 261720
TAFAND
TAF
KAND 261720Z 2618/2718 08006KT P6SM SCT045
      TEMPO 2620/2622 TS BKN045CB
     FM262200 12005KT P6SM SCT045
     FM270900 VRB03KT 4SM BR FEW045
     FM271300 09006KT P6SM FEW045=

USA.gov is the U.S. government's official web portal to all federal, state and local government web resources and services.